< < Back
Terminal Aerodrome Forecast


Current Version              Previous Versions:   1  2  3  4  5  6  7  8  9  

Terminal Aerodrome Forecast

120
FTUS44 KOHX 260522
TAFCSV
TAF
KCSV 260522Z 2606/2706 00000KT P6SM SKC
     FM260800 00000KT 3SM BR SKC
     FM261300 21005KT P6SM SCT050=

Latest METAR

216
SAUS70 KWBC 260600 RRG
MTRCSV
METAR KCSV 260553Z AUTO 00000KT 10SM CLR 21/19 A3018 RMK AO2 SLP195
T02060194 10289 20206 403110172 58003


USA.gov is the U.S. government's official web portal to all federal, state and local government web resources and services.